sensor_id;sensor_type;location;lat;lon;timestamp;temperature;humidity
6756;DHT22;3415;51.148;7.014;2023-05-29T00:00:58;15.10;99.90
6756;DHT22;3415;51.148;7.014;2023-05-29T00:03:25;15.00;99.90
6756;DHT22;3415;51.148;7.014;2023-05-29T00:05:52;15.00;99.90
6756;DHT22;3415;51.148;7.014;2023-05-29T00:08:20;15.00;99.90
6756;DHT22;3415;51.148;7.014;2023-05-29T00:10:47;15.30;99.90
6756;DHT22;3415;51.148;7.014;2023-05-29T00:13:14;14.90;99.90
6756;DHT22;3415;51.148;7.014;2023-05-29T00:15:41;14.90;99.90
6756;DHT22;3415;51.148;7.014;2023-05-29T00:18:08;15.00;99.90
6756;DHT22;3415;51.148;7.014;2023-05-29T00:20:34;14.90;99.90
6756;DHT22;3415;51.148;7.014;2023-05-29T00:23:01;14.80;99.90
6756;DHT22;3415;51.148;7.014;2023-05-29T00:25:31;14.70;99.90
6756;DHT22;3415;51.148;7.014;2023-05-29T00:27:58;14.70;99.90
6756;DHT22;3415;51.148;7.014;2023-05-29T00:30:25;14.60;99.90
6756;DHT22;3415;51.148;7.014;2023-05-29T00:32:52;14.60;99.90
6756;DHT22;3415;51.148;7.014;2023-05-29T00:35:19;14.50;99.90
6756;DHT22;3415;51.148;7.014;2023-05-29T00:37:46;14.50;99.90
6756;DHT22;3415;51.148;7.014;2023-05-29T00:40:13;14.60;99.90
6756;DHT22;3415;51.148;7.014;2023-05-29T00:42:41;14.40;99.90
6756;DHT22;3415;51.148;7.014;2023-05-29T00:45:08;14.30;99.90
6756;DHT22;3415;51.148;7.014;2023-05-29T00:47:36;14.30;99.90
6756;DHT22;3415;51.148;7.014;2023-05-29T00:50:04;14.30;99.90
6756;DHT22;3415;51.148;7.014;2023-05-29T00:52:31;14.20;99.90
6756;DHT22;3415;51.148;7.014;2023-05-29T00:54:58;14.20;99.90
6756;DHT22;3415;51.148;7.014;2023-05-29T00:57:27;14.10;99.90
6756;DHT22;3415;51.148;7.014;2023-05-29T00:59:56;14.00;99.90
6756;DHT22;3415;51.148;7.014;2023-05-29T01:02:23;14.10;99.90
6756;DHT22;3415;51.148;7.014;2023-05-29T01:04:50;14.00;99.90
6756;DHT22;3415;51.148;7.014;2023-05-29T01:07:19;14.00;99.90
6756;DHT22;3415;51.148;7.014;2023-05-29T01:09:47;13.60;99.90
6756;DHT22;3415;51.148;7.014;2023-05-29T01:12:26;13.90;99.90
6756;DHT22;3415;51.148;7.014;2023-05-29T01:15:08;13.80;99.90
6756;DHT22;3415;51.148;7.014;2023-05-29T01:17:51;13.70;99.90
6756;DHT22;3415;51.148;7.014;2023-05-29T01:20:30;13.60;99.90
6756;DHT22;3415;51.148;7.014;2023-05-29T01:23:07;13.60;99.90
6756;DHT22;3415;51.148;7.014;2023-05-29T01:25:50;13.60;99.90
6756;DHT22;3415;51.148;7.014;2023-05-29T01:28:26;13.60;99.90
6756;DHT22;3415;51.148;7.014;2023-05-29T01:30:54;13.60;99.90
6756;DHT22;3415;51.148;7.014;2023-05-29T01:35:48;13.50;99.90
6756;DHT22;3415;51.148;7.014;2023-05-29T01:38:15;13.50;99.90
6756;DHT22;3415;51.148;7.014;2023-05-29T01:40:42;13.60;99.90
6756;DHT22;3415;51.148;7.014;2023-05-29T01:43:09;13.40;99.90
6756;DHT22;3415;51.148;7.014;2023-05-29T01:45:38;13.30;99.90
6756;DHT22;3415;51.148;7.014;2023-05-29T01:48:06;13.50;99.90
6756;DHT22;3415;51.148;7.014;2023-05-29T01:50:33;13.20;99.90
6756;DHT22;3415;51.148;7.014;2023-05-29T01:53:00;13.20;99.90
6756;DHT22;3415;51.148;7.014;2023-05-29T01:55:27;13.10;99.90
6756;DHT22;3415;51.148;7.014;2023-05-29T01:57:54;13.00;99.90
6756;DHT22;3415;51.148;7.014;2023-05-29T02:00:22;13.00;99.90
6756;DHT22;3415;51.148;7.014;2023-05-29T02:02:50;12.90;99.90
6756;DHT22;3415;51.148;7.014;2023-05-29T02:05:17;13.10;99.90
6756;DHT22;3415;51.148;7.014;2023-05-29T02:07:44;12.80;99.90
6756;DHT22;3415;51.148;7.014;2023-05-29T02:10:12;12.80;99.90
6756;DHT22;3415;51.148;7.014;2023-05-29T02:12:38;12.70;1.00
6756;DHT22;3415;51.148;7.014;2023-05-29T02:15:06;12.70;1.00
6756;DHT22;3415;51.148;7.014;2023-05-29T02:17:33;12.60;1.00
6756;DHT22;3415;51.148;7.014;2023-05-29T02:20:01;12.60;1.00
6756;DHT22;3415;51.148;7.014;2023-05-29T02:22:29;12.50;1.00
6756;DHT22;3415;51.148;7.014;2023-05-29T02:24:56;12.50;1.00
6756;DHT22;3415;51.148;7.014;2023-05-29T02:27:23;12.50;1.00
6756;DHT22;3415;51.148;7.014;2023-05-29T02:29:50;12.30;1.00
6756;DHT22;3415;51.148;7.014;2023-05-29T02:32:17;11.30;1.00
6756;DHT22;3415;51.148;7.014;2023-05-29T02:34:43;12.20;1.00
6756;DHT22;3415;51.148;7.014;2023-05-29T02:37:12;12.10;1.00
6756;DHT22;3415;51.148;7.014;2023-05-29T02:39:39;12.10;1.00
6756;DHT22;3415;51.148;7.014;2023-05-29T02:42:06;12.00;1.00
6756;DHT22;3415;51.148;7.014;2023-05-29T02:44:33;12.00;1.00
6756;DHT22;3415;51.148;7.014;2023-05-29T02:47:00;11.90;1.00
6756;DHT22;3415;51.148;7.014;2023-05-29T02:49:26;11.90;1.00
6756;DHT22;3415;51.148;7.014;2023-05-29T02:51:53;11.90;1.00
6756;DHT22;3415;51.148;7.014;2023-05-29T02:54:24;11.70;1.00
6756;DHT22;3415;51.148;7.014;2023-05-29T02:56:50;11.70;1.00
6756;DHT22;3415;51.148;7.014;2023-05-29T03:01:45;11.70;1.00
6756;DHT22;3415;51.148;7.014;2023-05-29T03:04:12;11.70;1.00
6756;DHT22;3415;51.148;7.014;2023-05-29T03:06:39;11.60;1.00
6756;DHT22;3415;51.148;7.014;2023-05-29T03:09:06;11.60;1.00
6756;DHT22;3415;51.148;7.014;2023-05-29T03:11:34;11.50;1.00
6756;DHT22;3415;51.148;7.014;2023-05-29T03:14:03;11.50;1.00
6756;DHT22;3415;51.148;7.014;2023-05-29T03:16:30;11.50;1.00
6756;DHT22;3415;51.148;7.014;2023-05-29T03:18:57;11.40;1.00
6756;DHT22;3415;51.148;7.014;2023-05-29T03:21:24;11.40;1.00
6756;DHT22;3415;51.148;7.014;2023-05-29T03:23:51;11.40;1.00
6756;DHT22;3415;51.148;7.014;2023-05-29T03:26:18;11.40;1.00
6756;DHT22;3415;51.148;7.014;2023-05-29T03:28:46;11.30;1.00
6756;DHT22;3415;51.148;7.014;2023-05-29T03:31:13;11.30;1.00
6756;DHT22;3415;51.148;7.014;2023-05-29T03:33:40;11.30;1.00
6756;DHT22;3415;51.148;7.014;2023-05-29T03:36:07;11.30;1.00
6756;DHT22;3415;51.148;7.014;2023-05-29T03:41:01;11.30;1.00
6756;DHT22;3415;51.148;7.014;2023-05-29T03:43:28;11.30;1.00
6756;DHT22;3415;51.148;7.014;2023-05-29T03:45:56;11.30;1.00
6756;DHT22;3415;51.148;7.014;2023-05-29T03:48:23;11.30;1.00
6756;DHT22;3415;51.148;7.014;2023-05-29T03:50:50;11.40;1.00
6756;DHT22;3415;51.148;7.014;2023-05-29T03:53:16;11.30;1.00
6756;DHT22;3415;51.148;7.014;2023-05-29T03:55:43;11.30;1.00
6756;DHT22;3415;51.148;7.014;2023-05-29T03:58:10;11.30;1.00
6756;DHT22;3415;51.148;7.014;2023-05-29T04:00:37;11.40;1.00
6756;DHT22;3415;51.148;7.014;2023-05-29T04:03:06;11.40;1.00
6756;DHT22;3415;51.148;7.014;2023-05-29T04:05:32;11.40;1.00
6756;DHT22;3415;51.148;7.014;2023-05-29T04:08:00;11.40;1.00
6756;DHT22;3415;51.148;7.014;2023-05-29T04:10:30;11.40;1.00
6756;DHT22;3415;51.148;7.014;2023-05-29T04:12:59;11.50;1.00
6756;DHT22;3415;51.148;7.014;2023-05-29T04:15:26;11.40;1.00
6756;DHT22;3415;51.148;7.014;2023-05-29T04:17:53;11.50;1.00
6756;DHT22;3415;51.148;7.014;2023-05-29T04:20:21;11.50;1.00
6756;DHT22;3415;51.148;7.014;2023-05-29T04:22:48;11.60;1.00
6756;DHT22;3415;51.148;7.014;2023-05-29T04:25:15;11.60;1.00
6756;DHT22;3415;51.148;7.014;2023-05-29T04:27:43;11.60;1.00
6756;DHT22;3415;51.148;7.014;2023-05-29T04:30:14;11.60;1.00
6756;DHT22;3415;51.148;7.014;2023-05-29T04:32:41;11.80;1.00
6756;DHT22;3415;51.148;7.014;2023-05-29T04:35:09;11.60;1.00
6756;DHT22;3415;51.148;7.014;2023-05-29T04:37:37;11.60;1.00
6756;DHT22;3415;51.148;7.014;2023-05-29T04:40:06;11.50;1.00
6756;DHT22;3415;51.148;7.014;2023-05-29T04:42:35;11.60;1.00
6756;DHT22;3415;51.148;7.014;2023-05-29T04:45:03;11.60;1.00
6756;DHT22;3415;51.148;7.014;2023-05-29T04:47:31;11.70;1.00
6756;DHT22;3415;51.148;7.014;2023-05-29T04:49:58;11.70;1.00
6756;DHT22;3415;51.148;7.014;2023-05-29T04:52:25;11.70;1.00
6756;DHT22;3415;51.148;7.014;2023-05-29T04:54:53;11.70;1.00
6756;DHT22;3415;51.148;7.014;2023-05-29T04:57:22;11.90;1.00
6756;DHT22;3415;51.148;7.014;2023-05-29T04:59:49;11.70;1.00
6756;DHT22;3415;51.148;7.014;2023-05-29T05:02:15;11.70;1.00
6756;DHT22;3415;51.148;7.014;2023-05-29T05:04:42;11.80;1.00
6756;DHT22;3415;51.148;7.014;2023-05-29T05:07:11;11.80;1.00
6756;DHT22;3415;51.148;7.014;2023-05-29T05:09:38;11.90;1.00
6756;DHT22;3415;51.148;7.014;2023-05-29T05:12:07;11.90;1.00
6756;DHT22;3415;51.148;7.014;2023-05-29T05:14:34;12.00;1.00
6756;DHT22;3415;51.148;7.014;2023-05-29T05:17:01;12.00;1.00
6756;DHT22;3415;51.148;7.014;2023-05-29T05:19:28;12.20;1.00
6756;DHT22;3415;51.148;7.014;2023-05-29T05:21:56;12.30;1.00
6756;DHT22;3415;51.148;7.014;2023-05-29T05:24:22;12.40;1.00
6756;DHT22;3415;51.148;7.014;2023-05-29T05:26:49;12.70;1.00
6756;DHT22;3415;51.148;7.014;2023-05-29T05:29:17;13.10;1.00
6756;DHT22;3415;51.148;7.014;2023-05-29T05:31:45;13.20;1.00
6756;DHT22;3415;51.148;7.014;2023-05-29T05:34:12;13.20;1.00
6756;DHT22;3415;51.148;7.014;2023-05-29T05:36:38;13.40;1.00
6756;DHT22;3415;51.148;7.014;2023-05-29T05:39:05;13.80;1.00
6756;DHT22;3415;51.148;7.014;2023-05-29T05:41:32;14.10;1.00
6756;DHT22;3415;51.148;7.014;2023-05-29T05:43:59;14.60;99.90
6756;DHT22;3415;51.148;7.014;2023-05-29T05:46:27;14.80;99.90
6756;DHT22;3415;51.148;7.014;2023-05-29T05:48:54;14.90;99.90
6756;DHT22;3415;51.148;7.014;2023-05-29T05:51:23;15.00;99.90
6756;DHT22;3415;51.148;7.014;2023-05-29T05:53:50;15.30;99.90
6756;DHT22;3415;51.148;7.014;2023-05-29T05:56:16;15.30;99.90
6756;DHT22;3415;51.148;7.014;2023-05-29T05:58:43;15.50;99.90
6756;DHT22;3415;51.148;7.014;2023-05-29T06:01:10;15.60;99.90
6756;DHT22;3415;51.148;7.014;2023-05-29T06:03:38;15.90;99.90
6756;DHT22;3415;51.148;7.014;2023-05-29T06:06:05;16.30;99.90
6756;DHT22;3415;51.148;7.014;2023-05-29T06:08:33;16.40;99.90
6756;DHT22;3415;51.148;7.014;2023-05-29T06:10:59;16.90;99.90
6756;DHT22;3415;51.148;7.014;2023-05-29T06:13:26;16.80;99.90
6756;DHT22;3415;51.148;7.014;2023-05-29T06:15:53;17.10;99.90
6756;DHT22;3415;51.148;7.014;2023-05-29T06:18:20;17.00;99.90
6756;DHT22;3415;51.148;7.014;2023-05-29T06:20:48;17.30;99.90
6756;DHT22;3415;51.148;7.014;2023-05-29T06:23:15;17.20;99.90
6756;DHT22;3415;51.148;7.014;2023-05-29T06:25:42;17.10;99.90
6756;DHT22;3415;51.148;7.014;2023-05-29T06:28:09;17.30;99.90
6756;DHT22;3415;51.148;7.014;2023-05-29T06:30:36;17.70;99.90
6756;DHT22;3415;51.148;7.014;2023-05-29T06:33:03;18.50;99.90
6756;DHT22;3415;51.148;7.014;2023-05-29T06:35:30;18.70;99.90
6756;DHT22;3415;51.148;7.014;2023-05-29T06:37:58;18.60;99.90
6756;DHT22;3415;51.148;7.014;2023-05-29T06:40:25;18.60;99.90
6756;DHT22;3415;51.148;7.014;2023-05-29T06:42:51;18.90;99.90
6756;DHT22;3415;51.148;7.014;2023-05-29T06:45:18;19.60;99.90
6756;DHT22;3415;51.148;7.014;2023-05-29T06:47:45;19.40;99.90
6756;DHT22;3415;51.148;7.014;2023-05-29T06:50:12;19.50;99.90
6756;DHT22;3415;51.148;7.014;2023-05-29T06:52:39;19.90;99.90
6756;DHT22;3415;51.148;7.014;2023-05-29T06:55:08;19.80;99.90
6756;DHT22;3415;51.148;7.014;2023-05-29T06:57:35;19.60;99.90
6756;DHT22;3415;51.148;7.014;2023-05-29T07:00:02;20.00;99.90
6756;DHT22;3415;51.148;7.014;2023-05-29T07:02:31;20.20;99.90
6756;DHT22;3415;51.148;7.014;2023-05-29T07:04:58;20.40;99.90
6756;DHT22;3415;51.148;7.014;2023-05-29T07:07:25;20.40;99.90
6756;DHT22;3415;51.148;7.014;2023-05-29T07:09:51;20.60;99.90
6756;DHT22;3415;51.148;7.014;2023-05-29T07:12:21;21.00;99.90
6756;DHT22;3415;51.148;7.014;2023-05-29T07:14:48;21.20;99.90
6756;DHT22;3415;51.148;7.014;2023-05-29T07:17:14;21.80;99.90
6756;DHT22;3415;51.148;7.014;2023-05-29T07:19:41;22.10;99.90
6756;DHT22;3415;51.148;7.014;2023-05-29T07:22:08;21.70;99.90
6756;DHT22;3415;51.148;7.014;2023-05-29T07:24:35;22.50;99.90
6756;DHT22;3415;51.148;7.014;2023-05-29T07:27:02;22.80;99.90
6756;DHT22;3415;51.148;7.014;2023-05-29T07:29:30;23.00;99.90
6756;DHT22;3415;51.148;7.014;2023-05-29T07:31:57;23.40;99.90
6756;DHT22;3415;51.148;7.014;2023-05-29T07:34:24;22.80;99.90
6756;DHT22;3415;51.148;7.014;2023-05-29T07:36:59;23.20;99.90
6756;DHT22;3415;51.148;7.014;2023-05-29T07:39:26;23.40;99.90
6756;DHT22;3415;51.148;7.014;2023-05-29T07:41:53;23.00;99.90
6756;DHT22;3415;51.148;7.014;2023-05-29T07:44:20;22.60;99.90
6756;DHT22;3415;51.148;7.014;2023-05-29T07:46:48;22.80;99.90
6756;DHT22;3415;51.148;7.014;2023-05-29T07:49:15;22.70;99.90
6756;DHT22;3415;51.148;7.014;2023-05-29T07:51:42;23.00;99.90
6756;DHT22;3415;51.148;7.014;2023-05-29T07:54:09;23.30;99.90
6756;DHT22;3415;51.148;7.014;2023-05-29T07:56:36;22.50;99.90
6756;DHT22;3415;51.148;7.014;2023-05-29T07:59:03;22.50;99.90
6756;DHT22;3415;51.148;7.014;2023-05-29T08:01:29;23.20;99.90
6756;DHT22;3415;51.148;7.014;2023-05-29T08:03:57;22.70;99.90
6756;DHT22;3415;51.148;7.014;2023-05-29T08:06:24;22.80;99.90
6756;DHT22;3415;51.148;7.014;2023-05-29T08:08:52;23.60;99.90
6756;DHT22;3415;51.148;7.014;2023-05-29T08:11:19;24.70;99.90
6756;DHT22;3415;51.148;7.014;2023-05-29T08:13:45;24.40;99.90
6756;DHT22;3415;51.148;7.014;2023-05-29T08:16:12;23.80;99.90
6756;DHT22;3415;51.148;7.014;2023-05-29T08:18:41;23.70;99.90
6756;DHT22;3415;51.148;7.014;2023-05-29T08:21:09;23.90;99.90
6756;DHT22;3415;51.148;7.014;2023-05-29T08:23:37;25.30;99.90
6756;DHT22;3415;51.148;7.014;2023-05-29T08:26:04;25.50;99.90
6756;DHT22;3415;51.148;7.014;2023-05-29T08:28:31;25.50;99.90
6756;DHT22;3415;51.148;7.014;2023-05-29T08:30:57;25.10;99.90
6756;DHT22;3415;51.148;7.014;2023-05-29T08:33:24;25.00;99.90
6756;DHT22;3415;51.148;7.014;2023-05-29T08:35:51;25.60;99.90
6756;DHT22;3415;51.148;7.014;2023-05-29T08:38:19;25.70;99.90
6756;DHT22;3415;51.148;7.014;2023-05-29T08:40:47;25.60;99.90
6756;DHT22;3415;51.148;7.014;2023-05-29T08:43:17;25.90;99.90
6756;DHT22;3415;51.148;7.014;2023-05-29T08:45:48;25.60;99.90
6756;DHT22;3415;51.148;7.014;2023-05-29T08:48:19;24.80;99.90
6756;DHT22;3415;51.148;7.014;2023-05-29T08:50:49;24.80;99.90
6756;DHT22;3415;51.148;7.014;2023-05-29T08:53:19;24.80;99.90
6756;DHT22;3415;51.148;7.014;2023-05-29T08:55:47;24.80;99.90
6756;DHT22;3415;51.148;7.014;2023-05-29T08:58:16;23.90;99.90
6756;DHT22;3415;51.148;7.014;2023-05-29T09:00:44;25.00;99.90
6756;DHT22;3415;51.148;7.014;2023-05-29T09:03:12;25.00;99.90
6756;DHT22;3415;51.148;7.014;2023-05-29T09:05:40;25.30;99.90
6756;DHT22;3415;51.148;7.014;2023-05-29T09:08:07;25.40;99.90
6756;DHT22;3415;51.148;7.014;2023-05-29T09:10:36;25.40;99.90
6756;DHT22;3415;51.148;7.014;2023-05-29T09:13:03;25.40;99.90
6756;DHT22;3415;51.148;7.014;2023-05-29T09:15:31;25.40;99.90
6756;DHT22;3415;51.148;7.014;2023-05-29T09:17:58;26.70;99.90
6756;DHT22;3415;51.148;7.014;2023-05-29T09:20:25;26.70;99.90
6756;DHT22;3415;51.148;7.014;2023-05-29T09:22:54;27.00;99.90
6756;DHT22;3415;51.148;7.014;2023-05-29T09:25:22;26.80;99.90
6756;DHT22;3415;51.148;7.014;2023-05-29T09:27:58;26.50;99.90
6756;DHT22;3415;51.148;7.014;2023-05-29T09:30:36;26.60;99.90
6756;DHT22;3415;51.148;7.014;2023-05-29T09:33:04;26.50;99.90
6756;DHT22;3415;51.148;7.014;2023-05-29T09:35:35;26.80;99.90
6756;DHT22;3415;51.148;7.014;2023-05-29T09:38:03;26.80;99.90
6756;DHT22;3415;51.148;7.014;2023-05-29T09:40:31;25.40;99.90
6756;DHT22;3415;51.148;7.014;2023-05-29T09:43:04;25.70;99.90
6756;DHT22;3415;51.148;7.014;2023-05-29T09:45:37;25.90;99.90
6756;DHT22;3415;51.148;7.014;2023-05-29T09:48:06;26.20;99.90
6756;DHT22;3415;51.148;7.014;2023-05-29T09:50:34;26.50;99.90
6756;DHT22;3415;51.148;7.014;2023-05-29T09:53:01;26.70;99.90
6756;DHT22;3415;51.148;7.014;2023-05-29T09:55:30;26.60;99.90
6756;DHT22;3415;51.148;7.014;2023-05-29T09:57:59;26.50;99.90
6756;DHT22;3415;51.148;7.014;2023-05-29T10:00:29;26.40;99.90
6756;DHT22;3415;51.148;7.014;2023-05-29T10:02:56;26.80;99.90
6756;DHT22;3415;51.148;7.014;2023-05-29T10:05:23;26.60;99.90
6756;DHT22;3415;51.148;7.014;2023-05-29T10:07:54;26.70;99.90
6756;DHT22;3415;51.148;7.014;2023-05-29T10:10:21;26.00;99.90
6756;DHT22;3415;51.148;7.014;2023-05-29T10:12:51;26.40;99.90
6756;DHT22;3415;51.148;7.014;2023-05-29T10:15:19;26.20;99.90
6756;DHT22;3415;51.148;7.014;2023-05-29T10:17:55;26.70;99.90
6756;DHT22;3415;51.148;7.014;2023-05-29T10:20:26;27.30;99.90
6756;DHT22;3415;51.148;7.014;2023-05-29T10:22:56;27.60;99.90
6756;DHT22;3415;51.148;7.014;2023-05-29T10:25:27;27.20;99.90
6756;DHT22;3415;51.148;7.014;2023-05-29T10:27:56;27.30;99.90
6756;DHT22;3415;51.148;7.014;2023-05-29T10:30:29;27.30;99.90
6756;DHT22;3415;51.148;7.014;2023-05-29T10:33:15;27.30;99.90
6756;DHT22;3415;51.148;7.014;2023-05-29T10:35:49;28.50;99.90
6756;DHT22;3415;51.148;7.014;2023-05-29T10:38:18;28.40;99.90
6756;DHT22;3415;51.148;7.014;2023-05-29T10:40:47;28.00;99.90
6756;DHT22;3415;51.148;7.014;2023-05-29T10:43:33;27.50;99.90
6756;DHT22;3415;51.148;7.014;2023-05-29T10:46:00;27.60;99.90
6756;DHT22;3415;51.148;7.014;2023-05-29T10:48:39;28.20;99.90
6756;DHT22;3415;51.148;7.014;2023-05-29T10:51:07;28.60;99.90
6756;DHT22;3415;51.148;7.014;2023-05-29T10:53:34;27.60;99.90
6756;DHT22;3415;51.148;7.014;2023-05-29T10:56:08;27.50;99.90
6756;DHT22;3415;51.148;7.014;2023-05-29T10:58:41;27.40;99.90
6756;DHT22;3415;51.148;7.014;2023-05-29T11:01:08;27.60;99.90
6756;DHT22;3415;51.148;7.014;2023-05-29T11:03:35;27.40;99.90
6756;DHT22;3415;51.148;7.014;2023-05-29T11:06:05;27.40;99.90
6756;DHT22;3415;51.148;7.014;2023-05-29T11:08:33;27.40;99.90
6756;DHT22;3415;51.148;7.014;2023-05-29T11:11:01;26.90;99.90
6756;DHT22;3415;51.148;7.014;2023-05-29T11:13:33;27.50;99.90
6756;DHT22;3415;51.148;7.014;2023-05-29T11:16:11;27.50;99.90
6756;DHT22;3415;51.148;7.014;2023-05-29T11:18:40;26.90;99.90
6756;DHT22;3415;51.148;7.014;2023-05-29T11:21:21;26.50;99.90
6756;DHT22;3415;51.148;7.014;2023-05-29T11:23:51;26.00;99.90
6756;DHT22;3415;51.148;7.014;2023-05-29T11:26:19;26.10;99.90
6756;DHT22;3415;51.148;7.014;2023-05-29T11:28:47;26.50;99.90
6756;DHT22;3415;51.148;7.014;2023-05-29T11:31:15;26.40;99.90
6756;DHT22;3415;51.148;7.014;2023-05-29T11:33:49;27.00;99.90
6756;DHT22;3415;51.148;7.014;2023-05-29T11:36:18;27.40;99.90
6756;DHT22;3415;51.148;7.014;2023-05-29T11:38:46;27.40;99.90
6756;DHT22;3415;51.148;7.014;2023-05-29T11:41:13;28.10;99.90
6756;DHT22;3415;51.148;7.014;2023-05-29T11:43:40;27.70;99.90
6756;DHT22;3415;51.148;7.014;2023-05-29T11:46:19;27.60;99.90
6756;DHT22;3415;51.148;7.014;2023-05-29T11:48:47;27.20;99.90
6756;DHT22;3415;51.148;7.014;2023-05-29T11:51:14;27.10;99.90
6756;DHT22;3415;51.148;7.014;2023-05-29T11:53:43;26.50;99.90
6756;DHT22;3415;51.148;7.014;2023-05-29T11:56:10;26.00;99.90
6756;DHT22;3415;51.148;7.014;2023-05-29T11:58:37;27.10;99.90
6756;DHT22;3415;51.148;7.014;2023-05-29T12:01:05;26.70;99.90
6756;DHT22;3415;51.148;7.014;2023-05-29T12:03:38;27.10;99.90
6756;DHT22;3415;51.148;7.014;2023-05-29T12:06:05;27.20;99.90
6756;DHT22;3415;51.148;7.014;2023-05-29T12:08:33;26.60;99.90
6756;DHT22;3415;51.148;7.014;2023-05-29T12:11:01;26.80;99.90
6756;DHT22;3415;51.148;7.014;2023-05-29T12:13:28;26.80;99.90
6756;DHT22;3415;51.148;7.014;2023-05-29T12:15:57;26.70;99.90
6756;DHT22;3415;51.148;7.014;2023-05-29T12:18:24;26.20;99.90
6756;DHT22;3415;51.148;7.014;2023-05-29T12:20:57;25.30;99.90
6756;DHT22;3415;51.148;7.014;2023-05-29T12:23:24;24.70;99.90
6756;DHT22;3415;51.148;7.014;2023-05-29T12:25:51;24.30;99.90
6756;DHT22;3415;51.148;7.014;2023-05-29T12:28:20;24.10;99.90
6756;DHT22;3415;51.148;7.014;2023-05-29T12:30:48;23.70;99.90
6756;DHT22;3415;51.148;7.014;2023-05-29T12:33:29;23.10;99.90
6756;DHT22;3415;51.148;7.014;2023-05-29T12:36:02;22.90;99.90
6756;DHT22;3415;51.148;7.014;2023-05-29T12:38:29;22.60;99.90
6756;DHT22;3415;51.148;7.014;2023-05-29T12:40:56;22.70;99.90
6756;DHT22;3415;51.148;7.014;2023-05-29T12:43:24;22.50;99.90
6756;DHT22;3415;51.148;7.014;2023-05-29T12:45:54;22.50;99.90
6756;DHT22;3415;51.148;7.014;2023-05-29T12:48:26;22.40;99.90
6756;DHT22;3415;51.148;7.014;2023-05-29T12:50:53;22.60;99.90
6756;DHT22;3415;51.148;7.014;2023-05-29T12:53:21;22.80;99.90
6756;DHT22;3415;51.148;7.014;2023-05-29T12:55:48;22.50;99.90
6756;DHT22;3415;51.148;7.014;2023-05-29T12:58:15;22.70;99.90
6756;DHT22;3415;51.148;7.014;2023-05-29T13:00:44;22.60;99.90
6756;DHT22;3415;51.148;7.014;2023-05-29T13:03:11;22.90;99.90
6756;DHT22;3415;51.148;7.014;2023-05-29T13:05:38;23.00;99.90
6756;DHT22;3415;51.148;7.014;2023-05-29T13:08:06;22.50;99.90
6756;DHT22;3415;51.148;7.014;2023-05-29T13:10:33;22.50;99.90
6756;DHT22;3415;51.148;7.014;2023-05-29T13:13:01;22.40;99.90
6756;DHT22;3415;51.148;7.014;2023-05-29T13:15:28;22.50;99.90
6756;DHT22;3415;51.148;7.014;2023-05-29T13:17:56;22.70;99.90
6756;DHT22;3415;51.148;7.014;2023-05-29T13:20:23;22.80;99.90
6756;DHT22;3415;51.148;7.014;2023-05-29T13:22:52;22.70;99.90
6756;DHT22;3415;51.148;7.014;2023-05-29T13:25:20;22.60;99.90
6756;DHT22;3415;51.148;7.014;2023-05-29T13:27:48;22.20;99.90
6756;DHT22;3415;51.148;7.014;2023-05-29T13:30:16;22.00;99.90
6756;DHT22;3415;51.148;7.014;2023-05-29T13:32:43;22.10;99.90
6756;DHT22;3415;51.148;7.014;2023-05-29T13:35:11;21.90;99.90
6756;DHT22;3415;51.148;7.014;2023-05-29T13:37:39;21.70;99.90
6756;DHT22;3415;51.148;7.014;2023-05-29T13:40:06;21.60;99.90
6756;DHT22;3415;51.148;7.014;2023-05-29T13:42:34;21.70;99.90
6756;DHT22;3415;51.148;7.014;2023-05-29T13:45:01;21.80;99.90
6756;DHT22;3415;51.148;7.014;2023-05-29T13:47:29;21.70;99.90
6756;DHT22;3415;51.148;7.014;2023-05-29T13:49:57;21.90;99.90
6756;DHT22;3415;51.148;7.014;2023-05-29T13:52:26;22.00;99.90
6756;DHT22;3415;51.148;7.014;2023-05-29T13:54:53;21.80;99.90
6756;DHT22;3415;51.148;7.014;2023-05-29T13:57:20;21.70;99.90
6756;DHT22;3415;51.148;7.014;2023-05-29T13:59:47;21.60;99.90
6756;DHT22;3415;51.148;7.014;2023-05-29T14:02:13;21.70;99.90
6756;DHT22;3415;51.148;7.014;2023-05-29T14:04:41;21.80;99.90
6756;DHT22;3415;51.148;7.014;2023-05-29T14:07:09;21.90;99.90
6756;DHT22;3415;51.148;7.014;2023-05-29T14:09:37;21.90;99.90
6756;DHT22;3415;51.148;7.014;2023-05-29T14:12:04;21.80;99.90
6756;DHT22;3415;51.148;7.014;2023-05-29T14:14:32;21.80;99.90
6756;DHT22;3415;51.148;7.014;2023-05-29T14:17:00;21.60;99.90
6756;DHT22;3415;51.148;7.014;2023-05-29T14:19:26;21.50;99.90
6756;DHT22;3415;51.148;7.014;2023-05-29T14:21:53;21.70;99.90
6756;DHT22;3415;51.148;7.014;2023-05-29T14:24:20;21.20;99.90
6756;DHT22;3415;51.148;7.014;2023-05-29T14:26:48;21.10;99.90
6756;DHT22;3415;51.148;7.014;2023-05-29T14:29:16;21.10;99.90
6756;DHT22;3415;51.148;7.014;2023-05-29T14:31:43;21.10;99.90
6756;DHT22;3415;51.148;7.014;2023-05-29T14:34:11;21.20;99.90
6756;DHT22;3415;51.148;7.014;2023-05-29T14:36:39;21.10;99.90
6756;DHT22;3415;51.148;7.014;2023-05-29T14:39:07;21.20;99.90
6756;DHT22;3415;51.148;7.014;2023-05-29T14:41:33;21.20;99.90
6756;DHT22;3415;51.148;7.014;2023-05-29T14:44:02;20.90;99.90
6756;DHT22;3415;51.148;7.014;2023-05-29T14:46:29;20.90;99.90
6756;DHT22;3415;51.148;7.014;2023-05-29T14:48:57;21.00;99.90
6756;DHT22;3415;51.148;7.014;2023-05-29T14:51:24;20.90;99.90
6756;DHT22;3415;51.148;7.014;2023-05-29T14:53:51;21.00;99.90
6756;DHT22;3415;51.148;7.014;2023-05-29T14:56:18;21.00;99.90
6756;DHT22;3415;51.148;7.014;2023-05-29T14:58:45;20.80;99.90
6756;DHT22;3415;51.148;7.014;2023-05-29T15:01:14;20.70;99.90
6756;DHT22;3415;51.148;7.014;2023-05-29T15:03:41;20.70;99.90
6756;DHT22;3415;51.148;7.014;2023-05-29T15:06:09;20.60;99.90
6756;DHT22;3415;51.148;7.014;2023-05-29T15:11:05;21.00;99.90
6756;DHT22;3415;51.148;7.014;2023-05-29T15:13:33;21.00;99.90
6756;DHT22;3415;51.148;7.014;2023-05-29T15:16:00;21.00;99.90
6756;DHT22;3415;51.148;7.014;2023-05-29T15:18:30;21.00;99.90
6756;DHT22;3415;51.148;7.014;2023-05-29T15:20:57;20.80;99.90
6756;DHT22;3415;51.148;7.014;2023-05-29T15:23:24;20.20;99.90
6756;DHT22;3415;51.148;7.014;2023-05-29T15:25:51;20.70;99.90
6756;DHT22;3415;51.148;7.014;2023-05-29T15:28:18;20.60;99.90
6756;DHT22;3415;51.148;7.014;2023-05-29T15:30:45;20.60;99.90
6756;DHT22;3415;51.148;7.014;2023-05-29T15:33:13;20.30;99.90
6756;DHT22;3415;51.148;7.014;2023-05-29T15:35:41;20.30;99.90
6756;DHT22;3415;51.148;7.014;2023-05-29T15:38:09;20.30;99.90
6756;DHT22;3415;51.148;7.014;2023-05-29T15:40:38;20.30;99.90
6756;DHT22;3415;51.148;7.014;2023-05-29T15:43:05;20.20;99.90
6756;DHT22;3415;51.148;7.014;2023-05-29T15:45:32;20.30;99.90
6756;DHT22;3415;51.148;7.014;2023-05-29T15:47:59;20.30;99.90
6756;DHT22;3415;51.148;7.014;2023-05-29T15:50:26;20.40;99.90
6756;DHT22;3415;51.148;7.014;2023-05-29T15:52:54;20.20;99.90
6756;DHT22;3415;51.148;7.014;2023-05-29T15:55:21;20.20;99.90
6756;DHT22;3415;51.148;7.014;2023-05-29T15:57:48;20.10;99.90
6756;DHT22;3415;51.148;7.014;2023-05-29T16:00:16;20.10;99.90
6756;DHT22;3415;51.148;7.014;2023-05-29T16:02:43;20.30;99.90
6756;DHT22;3415;51.148;7.014;2023-05-29T16:05:10;20.40;99.90
6756;DHT22;3415;51.148;7.014;2023-05-29T16:07:37;20.60;99.90
6756;DHT22;3415;51.148;7.014;2023-05-29T16:10:07;20.50;99.90
6756;DHT22;3415;51.148;7.014;2023-05-29T16:12:34;20.40;99.90
6756;DHT22;3415;51.148;7.014;2023-05-29T16:15:01;20.40;99.90
6756;DHT22;3415;51.148;7.014;2023-05-29T16:17:29;20.70;99.90
6756;DHT22;3415;51.148;7.014;2023-05-29T16:19:56;20.40;99.90